Forks, WA (98331)

8:52 PM PDT on September 16, 2014 (GMT -0700)
Quillayute | Change Station
CLOSE
Current Station
Airport
Location: Quillayute,
Elevation: 194 ft
Nearby Weather Stations

Elev 194 ft 47.94 °N, 124.56 °W | Updated 24 minutes ago

Overcast
Overcast
60 °F
Feels Like 60 °F
N
0
Wind Variable Wind from North

Today
High -- | Low -- °F
--% Chance of Precip.
Yesterday
High -- | Low -- °F
Precip. -- in
6:56 AM 7:27 PM
Last Quarter, 40% visible
Pressure 29.88 in
Visibility 7.0 miles
Clouds Scattered Clouds 2900 ft
Dew Point 58 °F
Humidity 93%
Rainfall 0.00 in
Snow Depth 0 in , 0 in , 0 in
UV 0 out of 12
Pollen 1.80 out of 12
Air Quality Not available.
Flu Activity Not available.
SPECI KUIL 170328Z AUTO 00000KT 7SM SCT029 16/14 A2988 RMK AO2 T01560144

More Conditions Fewer Conditions

Pressure 29.88 in
Visibility 7.0 miles
Clouds Scattered Clouds 2900 ft
Dew Point 58 °F
Humidity 93%
Rainfall 0.00 in
Snow Depth 0 in , 0 in , 0 in
UV 0 out of 12
Pollen 1.80 out of 12
Air Quality Not available.
Flu Activity Not available.
SPECI KUIL 170328Z AUTO 00000KT 7SM SCT029 16/14 A2988 RMK AO2 T01560144

More Conditions Fewer Conditions

10-Day Weather Forecast

Almanac

Astronomy

Sep. 16, 2014 Rise Set
Actual Time 6:56 AM PDT 7:27 PM PDT
Civil Twilight 6:25 AM PDT 7:58 PM PDT
Nautical Twilight 5:48 AM PDT 8:35 PM PDT
Astronomical Twilight 5:09 AM PDT 9:14 PM PDT
Moon No Moon Rise 3:15 PM PDT (9/16)
Length of Visible Light 13h 33m
Length of Day
12h 31m
Tomorrow will be 3m 26s shorter.
Last Quarter, 40% of the Moon is Illuminated
Today
Last Quarter
Sep 24
New
Oct 1
First Quarter
Oct 8
Full
Oct 15
Last Quarter

Today's Extremes

State Highs State Lows

Community

WunderPhotos

Upload Photos

1,753,956 photos uploaded!

Nearby

Snow Depth

Station Depth Elevation
Touchet 0 in 5530 ft
Olallie Meadows 0 in 3700 ft
Sentinel Butte 0 in 4920 ft
Swift Creek 0 in 3770 ft
Spruce Springs 0 in 5700 ft

Earthquake Activity

City Distance Mag. Time & Date
No recent earthquake activity has been reported nearby.
Minimum magnitude displayed is 2.5.

Coastal Water Temperatures

Place Temperature
La Push, WA 59.0 °F
Westport, WA 57.0 °F
Port Angeles, WA 51.1 °F
Astoria, OR 64.0 °F

Nearby Weather Stations